Time;durP1;ratioP1;P1;durP2;ratioP2;P2;SDS_P1;SDS_P2;PMS_P1;PMS_P2;Temp;Humidity;BMP_temperature;BMP_pressure;BME280_temperature;BME280_humidity;BME280_pressure;Samples;Min_cycle;Max_cycle;Signal;HPM_P1;HPM_P2
2021/07/03 00:02:02;;;;;;;;;;;;;;;17.66;77.62;98053.19;1748785;81;21036;-88
2021/07/03 00:04:31;;;;;;;;;;;;;;;17.66;77.67;98049.71;1747294;81;20254;-89
2021/07/03 00:06:57;;;;;;;;;;;;;;;17.66;77.72;98049.71;1755822;81;20239;-89
2021/07/03 00:09:23;;;;;;;;;;;;;;;17.65;77.79;98046.73;1749041;81;20214;-88
2021/07/03 00:11:49;;;;;;;;;;;;;;;17.63;77.83;98045.55;1752539;81;20347;-88
2021/07/03 00:14:16;;;;;;;;;;;;;;;17.60;77.88;98048.53;1743555;81;26057;-88
2021/07/03 00:16:42;;;;;;;;;;;;;;;17.60;77.93;98043.73;1746800;82;24443;-88
2021/07/03 00:19:08;;;;;;;;;;;;;;;17.59;77.96;98045.52;1750430;81;20298;-88
2021/07/03 00:21:34;;;;;;;;;;;;;;;17.58;77.99;98039.89;1750917;81;20277;-88
2021/07/03 00:24:00;;;;;;;;;;;;;;;17.56;78.03;98042.69;1746384;81;22121;-88
2021/07/03 00:26:26;;;;;;;;;;;;;;;17.60;78.08;98043.25;1741061;81;21020;-88
2021/07/03 00:28:52;;;;;;;;;;;;;;;17.63;78.11;98046.88;1748253;81;24534;-88
2021/07/03 00:31:18;;;;;;;;;;;;;;;17.64;78.15;98047.22;1761622;80;20330;-88
2021/07/03 00:33:45;;;;;;;;;;;;;;;17.61;78.20;98047.55;1727952;82;20799;-88
2021/07/03 00:36:12;;;;;;;;;;;;;;;17.60;78.23;98047.21;1735278;82;21482;-88
2021/07/03 00:38:37;;;;;;;;;;;;;;;17.61;78.28;98044.91;1731382;82;20997;-88
2021/07/03 00:41:03;;;;;;;;;;;;;;;17.61;78.31;98050.20;1745429;81;20853;-88
2021/07/03 00:43:29;;;;;;;;;;;;;;;17.64;78.36;98043.25;1749849;81;20382;-88
2021/07/03 00:45:55;;;;;;;;;;;;;;;17.67;78.38;98044.77;1744592;81;20276;-88
2021/07/03 00:48:21;;;;;;;;;;;;;;;17.67;78.42;98046.91;1750207;81;20222;-88
2021/07/03 00:50:47;;;;;;;;;;;;;;;17.63;78.44;98046.05;1749958;81;21051;-88
2021/07/03 00:53:14;;;;;;;;;;;;;;;17.61;78.49;98044.91;1741293;81;20240;-88
2021/07/03 00:55:41;;;;;;;;;;;;;;;17.60;78.53;98051.19;1745645;81;20603;-88
2021/07/03 00:58:07;;;;;;;;;;;;;;;17.60;78.59;98055.64;1742949;81;24753;-89
2021/07/03 01:00:33;;;;;;;;;;;;;;;17.59;78.62;98058.75;1739373;82;20242;-88
2021/07/03 01:02:59;;;;;;;;;;;;;;;17.56;78.67;98059.09;1740687;82;20497;-88
2021/07/03 01:05:25;;;;;;;;;;;;;;;17.56;78.70;98059.88;1739281;82;20876;-88
2021/07/03 01:07:51;;;;;;;;;;;;;;;17.56;78.75;98061.73;1739834;82;20486;-88
2021/07/03 01:10:19;;;;;;;;;;;;;;;17.56;78.81;98063.05;1743545;82;20227;-88
2021/07/03 01:12:45;;;;;;;;;;;;;;;17.51;78.85;98054.24;1738337;82;22108;-88
2021/07/03 01:15:11;;;;;;;;;;;;;;;17.45;78.88;98057.56;1741218;82;26718;-88
2021/07/03 01:17:38;;;;;;;;;;;;;;;17.41;78.96;98056.69;1738114;82;24654;-88
2021/07/03 01:20:04;;;;;;;;;;;;;;;17.39;79.00;98052.06;1740086;82;20255;-88
2021/07/03 01:22:30;;;;;;;;;;;;;;;17.36;79.07;98047.91;1738527;82;24914;-88
2021/07/03 01:24:56;;;;;;;;;;;;;;;17.35;79.14;98052.86;1740791;82;22011;-88
2021/07/03 01:27:22;;;;;;;;;;;;;;;17.32;79.22;98057.16;1741918;81;20978;-88
2021/07/03 01:29:48;;;;;;;;;;;;;;;17.32;79.29;98055.00;1743477;82;20320;-88
2021/07/03 01:32:14;;;;;;;;;;;;;;;17.27;79.37;98048.88;1738182;82;20257;-88
2021/07/03 01:34:40;;;;;;;;;;;;;;;17.27;79.42;98052.01;1741175;82;20624;-88
2021/07/03 01:37:06;;;;;;;;;;;;;;;17.26;79.51;98054.31;1738042;82;20761;-88
2021/07/03 01:39:32;;;;;;;;;;;;;;;17.23;79.57;98052.00;1707185;82;25943;-88
2021/07/03 01:41:58;;;;;;;;;;;;;;;17.19;79.63;98051.95;1738378;82;20249;-88
2021/07/03 01:44:25;;;;;;;;;;;;;;;17.16;79.70;98047.83;1741871;82;20748;-88
2021/07/03 01:46:56;;;;;;;;;;;;;;;17.14;79.78;98053.75;1739060;82;24380;-88
2021/07/03 01:49:22;;;;;;;;;;;;;;;17.11;79.84;98056.23;1714832;82;21978;-88
2021/07/03 01:51:48;;;;;;;;;;;;;;;17.10;79.92;98055.06;1743719;82;25948;-88
2021/07/03 01:54:15;;;;;;;;;;;;;;;17.08;80.00;98051.25;1719027;82;24405;-88
2021/07/03 01:56:42;;;;;;;;;;;;;;;17.08;80.07;98050.41;1739961;82;20387;-88
2021/07/03 01:59:09;;;;;;;;;;;;;;;17.08;80.15;98051.73;1740674;82;24773;-88
2021/07/03 02:01:35;;;;;;;;;;;;;;;17.08;80.22;98054.38;1742228;82;22076;-88
2021/07/03 02:04:01;;;;;;;;;;;;;;;17.07;80.30;98058.83;1742118;82;21955;-88
2021/07/03 02:06:27;;;;;;;;;;;;;;;17.06;80.35;98049.77;1738487;82;20231;-88
2021/07/03 02:08:53;;;;;;;;;;;;;;;17.07;80.44;98060.68;1741767;81;20322;-88
2021/07/03 02:11:18;;;;;;;;;;;;;;;17.05;80.50;98055.54;1741904;82;20261;-88
2021/07/03 02:13:44;;;;;;;;;;;;;;;17.04;80.58;98056.52;1745154;82;20297;-88
2021/07/03 02:16:10;;;;;;;;;;;;;;;17.04;80.64;98058.33;1735461;82;20913;-88
2021/07/03 02:18:36;;;;;;;;;;;;;;;17.05;80.70;98058.67;1734134;82;20242;-88
2021/07/03 02:21:02;;;;;;;;;;;;;;;17.05;80.78;98053.38;1737144;82;20494;-88
2021/07/03 02:23:28;;;;;;;;;;;;;;;17.06;80.84;98057.20;1738952;82;20289;-88
2021/07/03 02:25:54;;;;;;;;;;;;;;;17.08;80.88;98059.17;1719770;82;20254;-88
2021/07/03 02:28:20;;;;;;;;;;;;;;;17.08;80.96;98053.89;1741560;82;21004;-88
2021/07/03 02:30:46;;;;;;;;;;;;;;;17.06;80.99;98054.56;1741452;82;20250;-88
2021/07/03 02:33:12;;;;;;;;;;;;;;;17.06;81.03;98049.27;1744585;82;20242;-88
2021/07/03 02:35:38;;;;;;;;;;;;;;;17.05;81.10;98052.89;1738394;82;20227;-88
2021/07/03 02:38:04;;;;;;;;;;;;;;;17.06;81.14;98055.88;1741780;82;20873;-88
2021/07/03 02:40:30;;;;;;;;;;;;;;;17.08;81.18;98053.89;1743466;82;25993;-88
2021/07/03 02:42:56;;;;;;;;;;;;;;;17.13;81.24;98063.50;1743295;82;24511;-88
2021/07/03 02:45:23;;;;;;;;;;;;;;;17.18;81.30;98060.41;1723752;82;20285;-88
2021/07/03 02:47:50;;;;;;;;;;;;;;;17.19;81.34;98062.04;1742796;82;24751;-89
2021/07/03 02:50:17;;;;;;;;;;;;;;;17.20;81.38;98063.70;1744675;82;22038;-88
2021/07/03 02:52:43;;;;;;;;;;;;;;;17.24;81.45;98065.56;1741046;82;25967;-88
2021/07/03 02:55:09;;;;;;;;;;;;;;;17.24;81.45;98067.68;1735927;82;24484;-88
2021/07/03 02:57:35;;;;;;;;;;;;;;;17.23;81.46;98060.77;1744627;82;20431;-88
2021/07/03 03:00:01;;;;;;;;;;;;;;;17.23;81.48;98065.22;1748059;81;20218;-88
2021/07/03 03:02:27;;;;;;;;;;;;;;;17.25;81.53;98063.23;1744023;82;20225;-89
2021/07/03 03:04:53;;;;;;;;;;;;;;;17.27;81.56;98064.73;1743734;82;26084;-88
2021/07/03 03:07:19;;;;;;;;;;;;;;;17.30;81.60;98063.58;1745881;82;20249;-88
2021/07/03 03:09:45;;;;;;;;;;;;;;;17.28;81.62;98065.58;1743564;82;20269;-88
2021/07/03 03:12:11;;;;;;;;;;;;;;;17.24;81.63;98065.56;1744763;82;20274;-88
2021/07/03 03:14:37;;;;;;;;;;;;;;;17.24;81.65;98069.53;1747423;82;20210;-88
2021/07/03 03:17:03;;;;;;;;;;;;;;;17.23;81.67;98066.05;1748154;81;20313;-88
2021/07/03 03:19:29;;;;;;;;;;;;;;;17.21;81.70;98068.02;1746421;82;25290;-88
2021/07/03 03:21:54;;;;;;;;;;;;;;;17.21;81.69;98071.15;1744726;82;20269;-88
2021/07/03 03:24:20;;;;;;;;;;;;;;;17.21;81.73;98074.63;1748011;82;20581;-88
2021/07/03 03:26:46;;;;;;;;;;;;;;;17.25;81.76;98077.28;1745374;82;20258;-88
2021/07/03 03:29:13;;;;;;;;;;;;;;;17.20;81.78;98071.64;1747923;82;21848;-88
2021/07/03 03:31:39;;;;;;;;;;;;;;;17.23;81.81;98075.31;1748834;82;24660;-88
2021/07/03 03:34:05;;;;;;;;;;;;;;;17.24;81.82;98074.30;1743090;82;20317;-88
2021/07/03 03:36:31;;;;;;;;;;;;;;;17.23;81.84;98073.98;1746728;82;20242;-88
2021/07/03 03:38:57;;;;;;;;;;;;;;;17.28;81.88;98073.51;1745593;82;22221;-88
2021/07/03 03:41:23;;;;;;;;;;;;;;;17.27;81.91;98075.81;1743062;82;20977;-88
2021/07/03 03:43:49;;;;;;;;;;;;;;;17.27;81.92;98071.84;1748617;82;20261;-88
2021/07/03 03:46:14;;;;;;;;;;;;;;;17.29;81.95;98073.33;1746213;82;20259;-88
2021/07/03 03:48:41;;;;;;;;;;;;;;;17.28;81.98;98075.66;1746976;82;24760;-88
2021/07/03 03:51:06;;;;;;;;;;;;;;;17.33;81.98;98077.83;1745549;82;20857;-88
2021/07/03 03:53:32;;;;;;;;;;;;;;;17.39;82.05;98079.84;1746225;82;21060;-88
2021/07/03 03:55:58;;;;;;;;;;;;;;;17.41;82.05;98080.49;1744828;81;20277;-88
2021/07/03 03:58:24;;;;;;;;;;;;;;;17.42;82.09;98073.73;1741703;82;20306;-88
2021/07/03 04:00:54;;;;;;;;;;;;;;;17.45;82.11;98079.21;1743058;82;20231;-88
2021/07/03 04:03:26;;;;;;;;;;;;;;;17.44;82.13;98078.88;1740735;82;22095;-88
2021/07/03 04:05:52;;;;;;;;;;;;;;;17.37;82.12;98076.02;1741126;82;39953;-88
2021/07/03 04:08:19;;;;;;;;;;;;;;;17.36;82.13;98077.50;1738359;82;20844;-88
2021/07/03 04:10:45;;;;;;;;;;;;;;;17.34;82.13;98080.81;1737675;82;20277;-88
2021/07/03 04:13:13;;;;;;;;;;;;;;;17.33;82.15;98079.16;1741619;82;24933;-88
2021/07/03 04:15:39;;;;;;;;;;;;;;;17.32;82.16;98080.96;1742594;82;22870;-88
2021/07/03 04:18:05;;;;;;;;;;;;;;;17.30;82.13;98079.45;1742078;82;21179;-88
2021/07/03 04:20:31;;;;;;;;;;;;;;;17.23;82.12;98076.62;1739381;82;20367;-88
2021/07/03 04:22:57;;;;;;;;;;;;;;;17.21;82.13;98075.95;1745194;82;20321;-88
2021/07/03 04:25:23;;;;;;;;;;;;;;;17.22;82.15;98075.45;1740186;82;26012;-88
2021/07/03 04:27:49;;;;;;;;;;;;;;;17.19;82.16;98077.08;1741023;82;20236;-88
2021/07/03 04:30:16;;;;;;;;;;;;;;;17.20;82.19;98068.99;1739854;82;26041;-88
2021/07/03 04:32:42;;;;;;;;;;;;;;;17.20;82.23;98072.95;1740762;82;24579;-88
2021/07/03 04:35:09;;;;;;;;;;;;;;;17.17;82.24;98073.78;1743589;82;20220;-90
2021/07/03 04:37:41;;;;;;;;;;;;;;;17.15;82.22;98072.61;1742710;82;24830;-90
2021/07/03 04:40:07;;;;;;;;;;;;;;;17.17;82.25;98075.94;1745187;82;21996;-91
2021/07/03 04:42:35;;;;;;;;;;;;;;;17.18;82.28;98071.48;1741512;82;26058;-91
2021/07/03 04:45:04;;;;;;;;;;;;;;;17.13;82.27;98070.11;1740935;82;24564;-91
2021/07/03 04:47:29;;;;;;;;;;;;;;;17.07;82.24;98077.34;1737386;82;20164;-91
2021/07/03 04:49:56;;;;;;;;;;;;;;;17.06;82.23;98074.88;1738838;82;20179;-91
2021/07/03 04:52:22;;;;;;;;;;;;;;;17.05;82.29;98067.92;1739186;82;20223;-90
2021/07/03 04:54:48;;;;;;;;;;;;;;;17.03;82.28;98069.39;1717098;82;26329;-91
2021/07/03 04:57:14;;;;;;;;;;;;;;;17.05;82.30;98072.72;1744813;82;24466;-91
2021/07/03 04:59:41;;;;;;;;;;;;;;;17.08;82.35;98068.43;1742742;82;20258;-90
2021/07/03 05:02:08;;;;;;;;;;;;;;;17.11;82.36;98072.59;1738509;82;25610;-90
2021/07/03 05:04:35;;;;;;;;;;;;;;;17.09;82.41;98066.13;1737150;82;21992;-90
2021/07/03 05:07:04;;;;;;;;;;;;;;;17.09;82.42;98071.91;1739209;82;26148;-91
2021/07/03 05:09:37;;;;;;;;;;;;;;;17.09;82.43;98075.38;1740248;82;24475;-91
2021/07/03 05:12:03;;;;;;;;;;;;;;;17.09;82.45;98065.30;1738718;82;20258;-90
2021/07/03 05:14:29;;;;;;;;;;;;;;;17.09;82.46;98070.58;1741548;82;24770;-90
2021/07/03 05:16:58;;;;;;;;;;;;;;;17.08;82.45;98064.47;1737368;82;20894;-90
2021/07/03 05:19:24;;;;;;;;;;;;;;;17.15;82.47;98070.80;1740435;82;26086;-90
2021/07/03 05:21:50;;;;;;;;;;;;;;;17.18;82.49;98068.83;1737958;82;21004;-90
2021/07/03 05:24:15;;;;;;;;;;;;;;;17.24;82.51;98068.20;1746390;82;20246;-90
2021/07/03 05:26:44;;;;;;;;;;;;;;;17.28;82.53;98070.86;1740856;82;20755;-90
2021/07/03 05:29:10;;;;;;;;;;;;;;;17.35;82.55;98074.02;1740978;82;22000;-91
2021/07/03 05:31:39;;;;;;;;;;;;;;;17.41;82.58;98069.91;1736113;82;20902;-90
2021/07/03 05:34:05;;;;;;;;;;;;;;;17.45;82.60;98072.60;1740319;82;24465;-90
2021/07/03 05:36:33;;;;;;;;;;;;;;;17.51;82.66;98080.70;1742534;82;20322;-90
2021/07/03 05:39:03;;;;;;;;;;;;;;;17.58;82.67;98072.96;1740688;82;24830;-90
2021/07/03 05:41:27;;;;;;;;;;;;;;;17.65;82.67;98076.67;1739995;82;22777;-90
2021/07/03 05:43:53;;;;;;;;;;;;;;;17.71;82.69;98076.52;1745270;82;26115;-90
2021/07/03 05:46:19;;;;;;;;;;;;;;;17.79;82.72;98079.18;1734056;82;24678;-90
2021/07/03 05:48:53;;;;;;;;;;;;;;;17.87;82.72;98086.67;1741013;82;20278;-90
2021/07/03 05:51:27;;;;;;;;;;;;;;;17.92;82.68;98084.36;1740319;82;24824;-90
2021/07/03 05:53:52;;;;;;;;;;;;;;;17.94;82.65;98086.86;1743626;82;22157;-90
2021/07/03 05:56:18;;;;;;;;;;;;;;;17.92;82.58;98081.72;1736420;82;20963;-90
2021/07/03 05:58:44;;;;;;;;;;;;;;;17.91;82.55;98085.34;1743337;82;25153;-89
2021/07/03 06:01:10;;;;;;;;;;;;;;;17.87;82.48;98087.99;1741547;82;20278;-90
2021/07/03 06:03:36;;;;;;;;;;;;;;;17.87;82.42;98086.67;1743497;82;20484;-90
2021/07/03 06:06:02;;;;;;;;;;;;;;;17.91;82.37;98088.48;1741789;82;20805;-90
2021/07/03 06:08:28;;;;;;;;;;;;;;;17.96;82.34;98088.83;1749978;82;21019;-90
2021/07/03 06:10:57;;;;;;;;;;;;;;;17.95;82.31;98095.94;1745939;82;20347;-90
2021/07/03 06:13:23;;;;;;;;;;;;;;;18.01;82.29;98092.31;1744208;82;20213;-90
2021/07/03 06:15:49;;;;;;;;;;;;;;;18.02;82.24;98096.13;1750585;81;20812;-89
2021/07/03 06:18:19;;;;;;;;;;;;;;;18.08;82.19;98099.95;1744996;82;20868;-89
2021/07/03 06:20:44;;;;;;;;;;;;;;;18.14;82.18;98097.98;1719486;83;26007;-90
2021/07/03 06:23:16;;;;;;;;;;;;;;;18.20;82.15;98097.33;1763756;81;24507;-90
2021/07/03 06:25:41;;;;;;;;;;;;;;;18.30;82.14;98096.19;1742003;82;20311;-90
2021/07/03 06:28:07;;;;;;;;;;;;;;;18.36;82.09;98102.66;1747120;82;20777;-90
2021/07/03 06:30:33;;;;;;;;;;;;;;;18.37;82.03;98100.34;1748295;81;20261;-90
2021/07/03 06:33:00;;;;;;;;;;;;;;;18.45;81.99;98100.33;1730460;82;25599;-89
2021/07/03 06:35:25;;;;;;;;;;;;;;;18.51;81.96;98110.27;1747396;82;20837;-89
2021/07/03 06:37:51;;;;;;;;;;;;;;;18.54;81.87;98105.16;1749701;82;20191;-90
2021/07/03 06:40:17;;;;;;;;;;;;;;;18.59;81.79;98106.84;1707166;82;20865;-90
2021/07/03 06:42:43;;;;;;;;;;;;;;;18.62;81.74;98109.15;1746006;81;20850;-89
2021/07/03 06:45:09;;;;;;;;;;;;;;;18.69;81.67;98105.69;1753435;82;21220;-89
2021/07/03 06:47:35;;;;;;;;;;;;;;;18.79;81.64;98106.34;1746912;82;20880;-89
2021/07/03 06:50:01;;;;;;;;;;;;;;;18.82;81.57;98105.69;1748321;82;20337;-89
2021/07/03 06:52:33;;;;;;;;;;;;;;;18.89;81.51;98106.16;1744716;81;25110;-90
2021/07/03 06:55:01;;;;;;;;;;;;;;;19.04;81.45;98101.82;1742056;82;20533;-90
2021/07/03 06:57:27;;;;;;;;;;;;;;;19.22;81.41;98112.23;1736988;82;21084;-90
2021/07/03 06:59:52;;;;;;;;;;;;;;;19.34;81.41;98110.89;1742671;82;20230;-89
2021/07/03 07:02:27;;;;;;;;;;;;;;;19.46;81.34;98112.22;1739279;82;20248;-89
2021/07/03 07:04:59;;;;;;;;;;;;;;;19.61;81.25;98113.16;1737849;82;24732;-90
2021/07/03 07:07:25;;;;;;;;;;;;;;;19.68;81.11;98107.98;1738701;82;22207;-90
2021/07/03 07:09:51;;;;;;;;;;;;;;;19.70;80.93;98111.78;1723582;82;21012;-90
2021/07/03 07:12:17;;;;;;;;;;;;;;;19.79;80.78;98116.08;1744046;82;24466;-90
2021/07/03 07:14:43;;;;;;;;;;;;;;;19.91;80.68;98117.36;1741974;82;20789;-90
2021/07/03 07:17:11;;;;;;;;;;;;;;;19.94;80.53;98116.50;1737653;82;24760;-90
2021/07/03 07:19:37;;;;;;;;;;;;;;;20.02;80.38;98108.97;1734114;82;22136;-89
2021/07/03 07:22:03;;;;;;;;;;;;;;;20.11;80.27;98110.59;1738667;82;26062;-90
2021/07/03 07:24:35;;;;;;;;;;;;;;;20.19;80.16;98119.00;1736835;82;20849;-89
2021/07/03 07:27:01;;;;;;;;;;;;;;;20.23;80.04;98109.70;1739821;82;20328;-89
2021/07/03 07:29:27;;;;;;;;;;;;;;;20.23;79.89;98114.52;1741710;82;20332;-90
2021/07/03 07:31:53;;;;;;;;;;;;;;;20.32;79.79;98107.34;1741034;82;20285;-90
2021/07/03 07:34:19;;;;;;;;;;;;;;;20.36;79.65;98102.81;1742628;82;21046;-89
2021/07/03 07:36:45;;;;;;;;;;;;;;;20.43;79.52;98109.59;1740016;82;20235;-89
2021/07/03 07:39:11;;;;;;;;;;;;;;;20.51;79.34;98106.85;1745870;82;20265;-89
2021/07/03 07:41:37;;;;;;;;;;;;;;;20.57;79.23;98116.78;1745922;82;24755;-89
2021/07/03 07:44:03;;;;;;;;;;;;;;;20.57;79.04;98111.46;1740999;82;20876;-89
2021/07/03 07:46:29;;;;;;;;;;;;;;;20.58;78.87;98113.13;1740814;82;26010;-90
2021/07/03 07:48:57;;;;;;;;;;;;;;;20.60;78.67;98110.30;1739692;82;20251;-89
2021/07/03 07:51:36;;;;;;;;;;;;;;;20.78;78.51;98109.48;1738214;82;20278;-90
2021/07/03 07:54:04;;;;;;;;;;;;;;;20.92;78.40;98105.20;1739650;82;24822;-89
2021/07/03 07:56:30;;;;;;;;;;;;;;;21.02;78.23;98102.60;1741252;82;22064;-89
2021/07/03 07:58:56;;;;;;;;;;;;;;;21.05;78.00;98102.76;1740245;82;20951;-90
2021/07/03 08:01:25;;;;;;;;;;;;;;;21.13;77.83;98101.33;1748997;81;20851;-89
2021/07/03 08:03:51;;;;;;;;;;;;;;;21.22;77.68;98103.75;1746861;82;20285;-89
2021/07/03 08:06:18;;;;;;;;;;;;;;;21.20;77.43;98100.97;1742431;82;24338;-90
2021/07/03 08:08:47;;;;;;;;;;;;;;;21.22;77.19;98101.09;1744942;82;20218;-90
2021/07/03 08:11:13;;;;;;;;;;;;;;;21.32;77.02;98092.86;1748581;82;26261;-89
2021/07/03 08:13:39;;;;;;;;;;;;;;;21.39;76.88;98092.42;1747696;82;20268;-90
2021/07/03 08:16:05;;;;;;;;;;;;;;;21.41;76.67;98094.91;1745107;82;20845;-90
2021/07/03 08:18:31;;;;;;;;;;;;;;;21.36;76.40;98097.30;1743570;82;24742;-90
2021/07/03 08:20:57;;;;;;;;;;;;;;;21.26;76.14;98093.09;1744417;82;20263;-90
2021/07/03 08:23:23;;;;;;;;;;;;;;;21.22;75.89;98098.96;1748088;82;22894;-90
2021/07/03 08:25:54;;;;;;;;;;;;;;;21.28;75.75;98096.37;1747031;82;20816;-90
2021/07/03 08:28:26;;;;;;;;;;;;;;;21.35;75.59;98088.98;1744221;82;20224;-89
2021/07/03 08:30:52;;;;;;;;;;;;;;;21.48;75.45;98090.52;1747934;82;24758;-89
2021/07/03 08:33:18;;;;;;;;;;;;;;;21.57;75.30;98091.55;1744017;82;20321;-89
2021/07/03 08:35:43;;;;;;;;;;;;;;;21.69;75.11;98091.92;1744512;82;20802;-89
2021/07/03 08:38:09;;;;;;;;;;;;;;;21.79;75.01;98084.45;1754052;82;20868;-90
2021/07/03 08:40:35;;;;;;;;;;;;;;;21.92;74.94;98093.95;1747634;82;20250;-89
2021/07/03 08:43:01;;;;;;;;;;;;;;;22.04;74.80;98089.80;1748423;81;20332;-90
2021/07/03 08:45:27;;;;;;;;;;;;;;;22.13;74.65;98085.70;1744406;82;20356;-90
2021/07/03 08:47:55;;;;;;;;;;;;;;;22.21;74.48;98086.39;1747268;82;25969;-90
2021/07/03 08:50:22;;;;;;;;;;;;;;;22.29;74.23;98086.80;1717164;82;24612;-90
2021/07/03 08:52:48;;;;;;;;;;;;;;;22.40;73.95;98082.30;1745436;82;20270;-90
2021/07/03 08:55:20;;;;;;;;;;;;;;;22.45;73.63;98077.21;1715839;82;20505;-90
2021/07/03 08:57:49;;;;;;;;;;;;;;;22.47;73.19;98079.19;1746455;82;21958;-90
2021/07/03 09:00:18;;;;;;;;;;;;;;;22.44;72.77;98087.56;1752751;81;26141;-89
2021/07/03 09:02:48;;;;;;;;;;;;;;;22.29;72.38;98081.47;1745063;82;25311;-90
2021/07/03 09:05:18;;;;;;;;;;;;;;;22.09;71.98;98079.40;1747233;82;20216;-90
2021/07/03 09:07:52;;;;;;;;;;;;;;;21.92;71.63;98084.62;1744898;82;24793;-90
2021/07/03 09:10:20;;;;;;;;;;;;;;;21.81;71.36;98075.78;1744868;82;21959;-90
2021/07/03 09:12:59;;;;;;;;;;;;;;;21.83;71.15;98077.73;1747043;82;26212;-90
2021/07/03 09:15:26;;;;;;;;;;;;;;;21.95;71.08;98076.78;1745088;82;24506;-90
2021/07/03 09:17:56;;;;;;;;;;;;;;;22.03;71.02;98070.85;1743537;82;20177;-90
2021/07/03 09:20:27;;;;;;;;;;;;;;;22.14;70.85;98066.86;1745384;82;24839;-90
2021/07/03 09:23:01;;;;;;;;;;;;;;;22.24;70.69;98059.38;1747450;82;21967;-90
2021/07/03 09:25:28;;;;;;;;;;;;;;;22.33;70.55;98062.23;1742966;82;25948;-90
2021/07/03 09:27:55;;;;;;;;;;;;;;;22.50;70.42;98064.95;1749394;82;24517;-90
2021/07/03 09:30:23;;;;;;;;;;;;;;;22.60;70.30;98051.28;1745608;82;20282;-90
2021/07/03 09:32:50;;;;;;;;;;;;;;;22.69;70.10;98051.48;1747695;82;24841;-90
2021/07/03 09:35:16;;;;;;;;;;;;;;;22.77;69.93;98052.70;1747025;82;21954;-90
2021/07/03 09:37:42;;;;;;;;;;;;;;;22.76;69.69;98053.70;1748981;82;26118;-90
2021/07/03 09:40:10;;;;;;;;;;;;;;;22.81;69.48;98053.95;1750793;82;24430;-89
2021/07/03 09:42:36;;;;;;;;;;;;;;;22.83;69.20;98054.59;1749557;82;20297;-90
2021/07/03 09:45:02;;;;;;;;;;;;;;;22.82;68.90;98048.11;1747189;82;24188;-91
2021/07/03 09:47:28;;;;;;;;;;;;;;;22.80;68.60;98046.16;1745166;82;22032;-90
2021/07/03 09:50:02;;;;;;;;;;;;;;;22.88;68.40;98045.49;1744207;82;26130;-90
2021/07/03 09:52:28;;;;;;;;;;;;;;;22.90;68.15;98053.31;1746808;82;24411;-89
2021/07/03 09:54:54;;;;;;;;;;;;;;;22.87;67.92;98051.02;1717456;82;20334;-90
2021/07/03 09:57:22;;;;;;;;;;;;;;;22.96;67.82;98043.20;1739310;82;25606;-90
2021/07/03 09:59:49;;;;;;;;;;;;;;;23.01;67.67;98042.10;1726671;82;21987;-90
2021/07/03 10:02:17;;;;;;;;;;;;;;;23.10;67.52;98037.42;1775619;80;25996;-90
2021/07/03 10:04:43;;;;;;;;;;;;;;;23.25;67.39;98034.11;1782955;79;24451;-90
2021/07/03 10:07:20;;;;;;;;;;;;;;;23.34;67.22;98031.11;1763271;80;20227;-90
2021/07/03 10:09:50;;;;;;;;;;;;;;;23.39;66.88;98027.84;1768397;79;24720;-90
2021/07/03 10:12:18;;;;;;;;;;;;;;;23.35;66.40;98037.25;1746543;81;21918;-91
2021/07/03 10:14:45;;;;;;;;;;;;;;;23.37;66.04;98033.87;1751963;81;25821;-90
2021/07/03 10:17:15;;;;;;;;;;;;;;;23.43;65.77;98035.77;1713697;82;20336;-90
2021/07/03 10:19:42;;;;;;;;;;;;;;;23.46;65.44;98019.36;1767594;80;20555;-90
2021/07/03 10:22:13;;;;;;;;;;;;;;;23.53;65.24;98018.88;1749207;81;24739;-90
2021/07/03 10:24:52;;;;;;;;;;;;;;;23.52;64.94;98022.57;1747302;81;21990;-90
2021/07/03 10:27:20;;;;;;;;;;;;;;;23.61;64.81;98012.56;1755525;81;26135;-89
2021/07/03 10:29:47;;;;;;;;;;;;;;;23.73;64.65;98014.94;1754694;81;24515;-90
2021/07/03 10:32:25;;;;;;;;;;;;;;;23.85;64.44;98017.86;1751805;81;20568;-90
2021/07/03 10:34:51;;;;;;;;;;;;;;;23.83;64.13;98013.25;1743414;81;24789;-90
2021/07/03 10:37:18;;;;;;;;;;;;;;;23.83;63.85;98011.91;1751032;81;21965;-90
2021/07/03 10:39:44;;;;;;;;;;;;;;;23.75;63.55;98004.88;1752416;81;25957;-90
2021/07/03 10:42:10;;;;;;;;;;;;;;;23.70;63.32;98002.82;1714655;81;20230;-90
2021/07/03 10:44:38;;;;;;;;;;;;;;;23.66;63.19;98003.42;1748959;81;20255;-90
2021/07/03 10:47:08;;;;;;;;;;;;;;;23.57;62.95;98013.45;1753220;81;24797;-90
2021/07/03 10:49:36;;;;;;;;;;;;;;;23.48;62.70;98003.97;1747000;81;22173;-90
2021/07/03 10:52:14;;;;;;;;;;;;;;;23.41;62.49;98004.41;1747690;81;26009;-90
2021/07/03 10:54:41;;;;;;;;;;;;;;;23.41;62.29;97999.06;1753606;81;24565;-90
2021/07/03 10:57:08;;;;;;;;;;;;;;;23.53;62.25;98000.69;1754141;81;20384;-90
2021/07/03 10:59:37;;;;;;;;;;;;;;;23.72;62.29;97995.44;1747598;81;24845;-89
2021/07/03 11:02:08;;;;;;;;;;;;;;;23.91;62.17;97991.16;1742093;82;21985;-90
2021/07/03 11:04:52;;;;;;;;;;;;;;;24.11;62.02;97988.53;1743057;82;25984;-89
2021/07/03 11:07:20;;;;;;;;;;;;;;;24.23;61.85;97989.59;1742168;82;25503;-90
2021/07/03 11:09:46;;;;;;;;;;;;;;;24.36;61.77;97982.09;1733979;82;20221;-90
2021/07/03 11:12:14;;;;;;;;;;;;;;;24.37;61.46;97983.75;1736430;82;24739;-90
2021/07/03 11:14:42;;;;;;;;;;;;;;;24.37;61.08;97987.25;1738699;82;22067;-90
2021/07/03 11:17:10;;;;;;;;;;;;;;;24.39;60.77;97983.00;1722579;82;25982;-90
2021/07/03 11:19:42;;;;;;;;;;;;;;;24.31;60.41;97980.55;1700026;81;25325;-90
2021/07/03 11:22:09;;;;;;;;;;;;;;;24.23;60.08;97978.89;1721985;82;20279;-89
2021/07/03 11:24:39;;;;;;;;;;;;;;;24.21;59.88;97976.13;1738932;82;25425;-90
2021/07/03 11:27:05;;;;;;;;;;;;;;;24.18;59.66;97980.02;1737542;82;21998;-90
2021/07/03 11:29:31;;;;;;;;;;;;;;;24.19;59.45;97974.98;1737917;82;21819;-90
2021/07/03 11:32:05;;;;;;;;;;;;;;;24.15;59.21;97973.72;1741596;82;20272;-89
2021/07/03 11:34:31;;;;;;;;;;;;;;;24.08;59.01;97976.38;1723015;82;20283;-90
2021/07/03 11:36:57;;;;;;;;;;;;;;;24.06;58.87;97975.75;1712161;81;24817;-90
2021/07/03 11:39:23;;;;;;;;;;;;;;;23.98;58.59;97964.44;1733953;82;20250;-90
2021/07/03 11:41:49;;;;;;;;;;;;;;;23.96;58.35;97960.63;1718968;83;21761;-90
2021/07/03 11:44:15;;;;;;;;;;;;;;;24.08;58.36;97969.70;1702581;81;20316;-89
2021/07/03 11:46:46;;;;;;;;;;;;;;;24.20;58.28;97969.95;1731360;82;20828;-90
2021/07/03 11:49:11;;;;;;;;;;;;;;;24.34;58.13;97964.91;1728834;82;24739;-90
2021/07/03 11:51:37;;;;;;;;;;;;;;;24.50;58.07;97961.81;1714120;81;20261;-90
2021/07/03 11:54:09;;;;;;;;;;;;;;;24.58;57.99;97964.29;1754961;81;26117;-89
2021/07/03 11:56:35;;;;;;;;;;;;;;;24.75;58.04;97957.17;1748986;81;24491;-90
2021/07/03 11:59:02;;;;;;;;;;;;;;;24.76;57.71;97958.30;1746962;81;20258;-89
2021/07/03 12:01:29;;;;;;;;;;;;;;;24.77;57.50;97952.41;1746143;81;24826;-89
2021/07/03 12:03:55;;;;;;;;;;;;;;;24.73;57.18;97953.35;1747300;81;22047;-90
2021/07/03 12:06:23;;;;;;;;;;;;;;;24.72;56.90;97946.34;1710652;82;21068;-90
2021/07/03 12:08:51;;;;;;;;;;;;;;;24.76;56.70;97947.59;1751206;81;24499;-89
2021/07/03 12:11:19;;;;;;;;;;;;;;;24.76;56.37;97952.95;1742857;81;20267;-89
2021/07/03 12:13:47;;;;;;;;;;;;;;;24.71;56.10;97947.38;1748243;81;25538;-89
2021/07/03 12:16:14;;;;;;;;;;;;;;;24.70;55.89;97939.58;1751877;81;21970;-90
2021/07/03 12:18:42;;;;;;;;;;;;;;;24.70;55.74;97939.58;1742640;81;26072;-90
2021/07/03 12:21:15;;;;;;;;;;;;;;;24.66;55.55;97929.78;1707806;82;20172;-90
2021/07/03 12:23:49;;;;;;;;;;;;;;;24.68;55.47;97930.92;1752577;81;20560;-90
2021/07/03 12:26:23;;;;;;;;;;;;;;;24.59;55.26;97931.67;1744438;81;24811;-90
2021/07/03 12:28:50;;;;;;;;;;;;;;;24.50;55.00;97933.72;1741809;81;21977;-89
2021/07/03 12:31:16;;;;;;;;;;;;;;;24.46;54.82;97925.81;1747605;81;26061;-91
2021/07/03 12:33:42;;;;;;;;;;;;;;;24.44;54.65;97923.84;1746022;81;20269;-90
2021/07/03 12:36:18;;;;;;;;;;;;;;;24.48;54.54;97922.42;1744823;81;20282;-90
2021/07/03 12:38:44;;;;;;;;;;;;;;;24.60;54.58;97924.75;1738747;81;24940;-90
2021/07/03 12:41:11;;;;;;;;;;;;;;;24.67;54.50;97922.58;1745814;81;21987;-90
2021/07/03 12:43:37;;;;;;;;;;;;;;;24.61;54.26;97917.55;1745909;81;28181;-90
2021/07/03 12:46:04;;;;;;;;;;;;;;;24.48;54.01;97919.75;1747999;81;20835;-90
2021/07/03 12:48:35;;;;;;;;;;;;;;;24.41;53.68;97915.42;1746959;81;20218;-91